Time;durP1;ratioP1;P1;durP2;ratioP2;P2;SDS_P1;SDS_P2;PMS_P1;PMS_P2;Temp;Humidity;BMP_temperature;BMP_pressure;BME280_temperature;BME280_humidity;BME280_pressure;Samples;Min_cycle;Max_cycle;Signal;HPM_P1;HPM_P2
2022/10/17 00:03:08;;;;;;;8.50;5.33;;;10.40;99.90;;;;;;10462467;28;20279;-83
2022/10/17 00:08:30;;;;;;;10.20;6.83;;;;;;;;;;10470465;28;20532;-82
2022/10/17 00:13:54;;;;;;;8.70;6.63;;;10.30;99.90;;;;;;10412535;28;20461;-83
2022/10/17 00:19:16;;;;;;;16.40;7.87;;;;;;;;;;10432561;28;20266;-85
2022/10/17 00:24:37;;;;;;;11.13;8.17;;;9.90;99.90;;;;;;10453641;28;20547;-83
2022/10/17 00:29:58;;;;;;;9.03;7.03;;;9.80;99.90;;;;;;10451012;28;20628;-83
2022/10/17 00:35:20;;;;;;;8.43;6.90;;;9.90;99.90;;;;;;10414548;28;20249;-85
2022/10/17 00:40:41;;;;;;;12.00;6.70;;;9.90;99.90;;;;;;10428116;28;20221;-83
2022/10/17 00:46:02;;;;;;;10.10;6.63;;;9.70;99.90;;;;;;10428317;28;20205;-83
2022/10/17 00:51:33;;;;;;;10.50;7.63;;;9.50;99.90;;;;;;10427916;28;20203;-83
2022/10/17 00:56:56;;;;;;;12.10;7.80;;;8.20;99.90;;;;;;10413804;28;20203;-83
2022/10/17 01:02:22;;;;;;;11.83;7.87;;;;;;;;;;10443720;28;20246;-84
2022/10/17 01:07:45;;;;;;;22.80;10.33;;;;;;;;;;10427030;28;20261;-85
2022/10/17 01:13:06;;;;;;;24.37;11.23;;;;;;;;;;10454392;28;20199;-83
2022/10/17 01:18:28;;;;;;;20.30;10.43;;;;;;;;;;10470658;28;20199;-83
2022/10/17 01:24:25;;;;;;;26.10;12.07;;;;;;;;;;10440657;28;20204;-84
2022/10/17 01:29:56;;;;;;;24.17;11.67;;;9.30;99.90;;;;;;10342237;28;20646;-83
2022/10/17 01:35:22;;;;;;;39.37;16.03;;;;;;;;;;10312979;28;20244;-84
2022/10/17 01:40:45;;;;;;;31.97;14.70;;;;;;;;;;10306542;28;20401;-82
2022/10/17 01:46:16;;;;;;;29.47;14.53;;;9.20;99.90;;;;;;10328393;28;20197;-83
2022/10/17 01:51:43;;;;;;;26.93;14.63;;;9.20;99.90;;;;;;10325587;28;20553;-83
2022/10/17 01:57:10;;;;;;;25.03;13.37;;;9.30;99.90;;;;;;10325041;28;20212;-82
2022/10/17 02:02:32;;;;;;;22.30;12.63;;;9.90;99.90;;;;;;10350143;28;20215;-85
2022/10/17 02:07:53;;;;;;;16.80;11.33;;;;;;;;;;10411334;28;20427;-82
2022/10/17 02:13:32;;;;;;;15.77;10.17;;;;;;;;;;10426974;28;20275;-82
2022/10/17 02:19:12;;;;;;;15.20;10.00;;;;;;;;;;10424247;28;20544;-83
2022/10/17 02:24:37;;;;;;;15.47;9.40;;;;;;;;;;10410944;28;20522;-85
2022/10/17 02:30:02;;;;;;;15.77;9.50;;;;;;;;;;10444172;28;20308;-82
2022/10/17 02:35:27;;;;;;;22.20;14.43;;;;;;;;;;10454437;28;20516;-85
2022/10/17 02:40:50;;;;;;;21.27;12.47;;;8.80;99.90;;;;;;10446569;28;20217;-82
2022/10/17 02:46:19;;;;;;;21.43;11.70;;;;;;;;;;10478478;28;20190;-85
2022/10/17 02:51:48;;;;;;;21.50;10.80;;;;;;;;;;10463941;28;20228;-82
2022/10/17 02:57:23;;;;;;;19.90;11.87;;;8.60;99.90;;;;;;10478373;28;20232;-84
2022/10/17 03:02:53;;;;;;;20.23;12.40;;;8.70;99.90;;;;;;10464337;28;20214;-85
2022/10/17 03:08:18;;;;;;;25.13;14.20;;;;;;;;;;10480138;28;20274;-84
2022/10/17 03:13:39;;;;;;;27.60;16.23;;;8.70;99.90;;;;;;10443933;28;20192;-82
2022/10/17 03:19:00;;;;;;;20.77;12.17;;;8.50;99.90;;;;;;10408710;28;20221;-83
2022/10/17 03:24:22;;;;;;;19.13;10.73;;;8.50;99.90;;;;;;10422473;28;20202;-83
2022/10/17 03:29:43;;;;;;;16.70;9.50;;;8.50;99.90;;;;;;10457121;28;20515;-85
2022/10/17 03:35:06;;;;;;;15.73;9.70;;;8.30;99.90;;;;;;10414231;28;20186;-82
2022/10/17 03:40:29;;;;;;;15.37;9.27;;;8.60;99.90;;;;;;10442395;28;20178;-83
2022/10/17 03:45:50;;;;;;;16.50;9.57;;;8.60;99.90;;;;;;10403281;28;20200;-82
2022/10/17 03:51:12;;;;;;;17.77;9.90;;;8.60;99.90;;;;;;10417234;28;20222;-83
2022/10/17 03:56:39;;;;;;;16.23;9.13;;;8.70;99.90;;;;;;10402954;28;20500;-82
2022/10/17 04:02:05;;;;;;;14.57;8.63;;;8.70;99.90;;;;;;10417478;28;20487;-83
2022/10/17 04:07:27;;;;;;;21.87;10.33;;;8.70;99.90;;;;;;10421377;28;20223;-84
2022/10/17 04:12:48;;;;;;;17.27;9.43;;;8.60;99.90;;;;;;10459128;28;20204;-82
2022/10/17 04:18:10;;;;;;;25.30;10.60;;;8.60;99.90;;;;;;10468803;28;20584;-83
2022/10/17 04:23:32;;;;;;;23.30;10.73;;;8.60;99.90;;;;;;10459210;28;20202;-85
2022/10/17 04:29:03;;;;;;;25.43;12.00;;;;;;;;;;10447281;28;20310;-86
2022/10/17 04:34:25;;;;;;;28.53;15.73;;;;;;;;;;10400710;28;20225;-83
2022/10/17 04:39:46;;;;;;;31.23;17.67;;;;;;;;;;10439579;28;20192;-84
2022/10/17 04:45:08;;;;;;;30.10;16.87;;;;;;;;;;10483286;28;20218;-83
2022/10/17 04:50:31;;;;;;;32.03;18.07;;;;;;;;;;10483015;28;20216;-83
2022/10/17 04:56:20;;;;;;;36.13;19.17;;;8.80;99.90;;;;;;10474594;28;20204;-82
2022/10/17 05:01:41;;;;;;;38.87;21.80;;;8.70;99.90;;;;;;10454808;28;20202;-83
2022/10/17 05:07:03;;;;;;;35.87;20.40;;;8.70;99.90;;;;;;10454887;28;20276;-83
2022/10/17 05:12:47;;;;;;;41.40;21.63;;;8.80;99.90;;;;;;10465919;28;20209;-86
2022/10/17 05:18:10;;;;;;;37.33;21.73;;;8.80;99.90;;;;;;10454025;28;20399;-82
2022/10/17 05:23:34;;;;;;;28.83;17.03;;;8.80;99.90;;;;;;10460474;28;20210;-85
2022/10/17 05:28:55;;;;;;;22.23;11.77;;;8.70;99.90;;;;;;10417145;28;20241;-83
2022/10/17 05:34:18;;;;;;;12.30;8.90;;;8.70;99.90;;;;;;10411930;28;20203;-82
2022/10/17 05:39:40;;;;;;;15.27;8.77;;;8.70;99.90;;;;;;10461942;28;20197;-85
2022/10/17 05:45:03;;;;;;;16.40;9.63;;;8.70;99.90;;;;;;10480602;28;20191;-83
2022/10/17 05:50:25;;;;;;;33.33;19.73;;;8.80;99.90;;;;;;10466502;28;20415;-83
2022/10/17 05:56:03;;;;;;;56.63;27.67;;;8.90;99.90;;;;;;10480497;28;20395;-84
2022/10/17 06:01:26;;;;;;;48.13;22.87;;;8.90;99.90;;;;;;10482819;28;20206;-82
2022/10/17 06:06:47;;;;;;;34.07;17.47;;;8.90;99.90;;;;;;10464969;28;20203;-82
2022/10/17 06:12:08;;;;;;;30.57;15.23;;;9.10;99.90;;;;;;10439424;28;20228;-80
2022/10/17 06:17:30;;;;;;;26.37;13.43;;;9.10;99.90;;;;;;10441626;28;20223;-84
2022/10/17 06:22:51;;;;;;;26.13;12.80;;;8.40;99.90;;;;;;10428428;28;20278;-87
2022/10/17 06:28:24;;;;;;;28.17;12.77;;;9.30;99.90;;;;;;10456173;28;20239;-87
2022/10/17 06:33:47;;;;;;;16.47;9.73;;;9.50;99.90;;;;;;10397831;28;20200;-81
2022/10/17 06:39:08;;;;;;;16.27;7.63;;;9.60;99.90;;;;;;10435730;28;20208;-84
2022/10/17 06:44:34;;;;;;;11.33;7.07;;;9.60;99.90;;;;;;10484515;28;20191;-81
2022/10/17 06:50:22;;;;;;;14.20;9.80;;;9.70;99.90;;;;;;10484347;28;20567;-81
2022/10/17 06:56:01;;;;;;;11.77;9.30;;;9.80;99.90;;;;;;10470491;28;20314;-86
2022/10/17 07:01:42;;;;;;;10.23;7.47;;;;;;;;;;10481397;28;20199;-86
2022/10/17 07:07:05;;;;;;;8.43;7.07;;;;;;;;;;10481357;28;20235;-87
2022/10/17 07:12:28;;;;;;;13.20;8.10;;;;;;;;;;10412763;28;20199;-86
2022/10/17 07:17:49;;;;;;;16.17;9.47;;;;;;;;;;10453274;28;20262;-87
2022/10/17 07:23:12;;;;;;;14.53;10.10;;;;;;;;;;10442334;28;20211;-82
2022/10/17 07:28:38;;;;;;;13.80;8.97;;;;;;;;;;10436009;28;20502;-83
2022/10/17 07:34:13;;;;;;;13.97;9.63;;;;;;;;;;10416526;28;20306;-81
2022/10/17 07:39:34;;;;;;;13.63;9.43;;;;;;;;;;10422652;28;20200;-88
2022/10/17 07:44:56;;;;;;;15.00;11.40;;;;;;;;;;10443672;28;20561;-83
2022/10/17 07:50:20;;;;;;;21.23;14.67;;;;;;;;;;10447601;28;20257;-84
2022/10/17 07:55:42;;;;;;;15.70;12.47;;;;;;;;;;10445248;28;20195;-86
2022/10/17 08:01:04;;;;;;;21.33;12.47;;;;;;;;;;10417899;28;20239;-87
2022/10/17 08:06:26;;;;;;;14.97;9.43;;;;;;;;;;10447907;28;20230;-83
2022/10/17 08:11:48;;;;;;;13.40;8.87;;;;;;;;;;10442406;28;20265;-86
2022/10/17 08:17:10;;;;;;;10.83;7.97;;;;;;;;;;10431652;28;20817;-83
2022/10/17 08:22:32;;;;;;;12.10;8.73;;;;;;;;;;10431818;28;20217;-80
2022/10/17 08:27:54;;;;;;;14.70;8.93;;;;;;;;;;10473231;28;20245;-84
2022/10/17 08:33:15;;;;;;;14.13;10.07;;;;;;;;;;10426309;28;20224;-83
2022/10/17 08:38:38;;;;;;;17.90;10.77;;;12.60;99.90;;;;;;10431408;28;20220;-82
2022/10/17 08:44:01;;;;;;;12.52;8.48;;;;;;;;;;10441652;28;20192;-81
2022/10/17 08:49:47;;;;;;;15.02;8.18;;;13.70;99.90;;;;;;10411046;28;20234;-84
2022/10/17 08:55:16;;;;;;;9.73;6.63;;;;;;;;;;10425985;28;20525;-80
2022/10/17 09:00:39;;;;;;;8.82;5.53;;;14.70;99.90;;;;;;10437554;28;20545;-81
2022/10/17 09:06:19;;;;;;;7.80;4.95;;;14.90;99.90;;;;;;10434212;28;20225;-82
2022/10/17 09:11:49;;;;;;;7.78;5.82;;;14.80;99.90;;;;;;10469851;28;20231;-81
2022/10/17 09:17:16;;;;;;;10.83;8.87;;;14.70;99.90;;;;;;10476746;28;20253;-81
2022/10/17 09:23:00;;;;;;;6.40;5.50;;;14.70;99.90;;;;;;10442275;28;20198;-84
2022/10/17 09:28:32;;;;;;;7.40;5.45;;;14.90;99.90;;;;;;10466714;28;20250;-81
2022/10/17 09:34:00;;;;;;;5.10;4.30;;;15.20;99.90;;;;;;10435001;28;20465;-80
2022/10/17 09:39:25;;;;;;;11.65;6.10;;;15.30;99.90;;;;;;10466399;28;20277;-81
2022/10/17 09:44:52;;;;;;;5.03;4.53;;;15.10;99.90;;;;;;10448713;28;20272;-81
2022/10/17 09:50:30;;;;;;;9.27;6.50;;;15.40;99.90;;;;;;10476846;28;20221;-82
2022/10/17 09:56:01;;;;;;;9.82;6.88;;;15.30;99.90;;;;;;10476585;28;20212;-85
2022/10/17 10:01:25;;;;;;;7.82;5.57;;;15.80;99.90;;;;;;10447986;28;20230;-88
2022/10/17 10:07:04;;;;;;;9.13;5.85;;;;;;;;;;10475984;28;20198;-82
2022/10/17 10:12:32;;;;;;;7.82;5.30;;;16.50;99.90;;;;;;10365703;28;20236;-85
2022/10/17 10:17:53;;;;;;;10.25;7.78;;;;;;;;;;10393493;28;20261;-81
2022/10/17 10:23:17;;;;;;;6.30;5.05;;;17.30;99.90;;;;;;10431827;28;20215;-85
2022/10/17 10:28:38;;;;;;;8.73;5.05;;;17.60;99.90;;;;;;10463841;28;20232;-83
2022/10/17 10:34:10;;;;;;;7.53;5.22;;;17.50;1.00;;;;;;10451667;28;20207;-81
2022/10/17 10:39:33;;;;;;;10.73;6.57;;;17.30;1.00;;;;;;10445393;28;20200;-82
2022/10/17 10:45:18;;;;;;;14.13;5.93;;;17.00;1.00;;;;;;10446982;28;20215;-82
2022/10/17 10:50:56;;;;;;;14.38;8.02;;;16.80;99.90;;;;;;10411436;28;20402;-82
2022/10/17 10:56:34;;;;;;;12.55;8.63;;;16.70;99.90;;;;;;10449772;28;20203;-80
2022/10/17 11:02:23;;;;;;;23.25;13.45;;;16.80;99.90;;;;;;10464449;28;20209;-83
2022/10/17 11:08:13;;;;;;;23.45;11.85;;;;;;;;;;10449991;28;20210;-81
2022/10/17 11:13:50;;;;;;;10.80;6.88;;;20.30;1.00;;;;;;10413864;28;20341;-82
2022/10/17 11:19:24;;;;;;;8.25;5.85;;;20.70;99.90;;;;;;10427204;28;20200;-83
2022/10/17 11:25:13;;;;;;;22.75;12.23;;;22.30;1.00;;;;;;10414098;28;20196;-82
2022/10/17 11:31:00;;;;;;;17.13;8.18;;;22.70;99.90;;;;;;10446933;28;20252;-83
2022/10/17 11:36:28;;;;;;;8.35;6.03;;;22.20;1.00;;;;;;10417329;28;20204;-82
2022/10/17 11:41:58;;;;;;;9.15;7.15;;;22.40;99.90;;;;;;10418183;28;20491;-83
2022/10/17 11:47:45;;;;;;;7.18;5.25;;;23.10;1.00;;;;;;10457997;28;20216;-84
2022/10/17 11:53:40;;;;;;;6.20;4.40;;;23.30;1.00;;;;;;10453711;28;20218;-81
2022/10/17 11:59:44;;;;;;;6.00;4.18;;;24.70;9.00;;;;;;10461994;28;20227;-86
2022/10/17 12:05:18;;;;;;;5.95;3.25;;;24.90;1.00;;;;;;10462656;28;20542;-83
2022/10/17 12:10:46;;;;;;;4.53;3.25;;;24.80;99.90;;;;;;10465878;28;20224;-86
2022/10/17 12:16:19;;;;;;;8.77;3.75;;;;;;;;;;10444060;28;20273;-84
2022/10/17 12:22:02;;;;;;;8.98;6.20;;;26.10;36.50;;;;;;10450430;28;20535;-87
2022/10/17 12:27:35;;;;;;;6.60;5.38;;;25.50;1.00;;;;;;10473568;28;20215;-88
2022/10/17 12:33:05;;;;;;;7.25;5.80;;;24.90;1.00;;;;;;10442703;28;20205;-83
2022/10/17 12:38:27;;;;;;;5.22;4.72;;;24.30;99.90;;;;;;10411956;28;20527;-89
2022/10/17 12:43:51;;;;;;;4.57;3.58;;;24.60;99.90;;;;;;10386712;28;20193;-85
2022/10/17 12:49:34;;;;;;;7.38;5.75;;;25.20;99.90;;;;;;10432072;28;20449;-83
2022/10/17 12:55:00;;;;;;;5.57;4.55;;;25.40;99.90;;;;;;10446448;28;20516;-82
2022/10/17 13:00:50;;;;;;;9.50;5.88;;;23.90;1.00;;;;;;10449468;28;20194;-87
2022/10/17 13:06:23;;;;;;;7.68;5.68;;;23.50;1.00;;;;;;10414690;28;20199;-87
2022/10/17 13:11:44;;;;;;;8.68;5.32;;;22.80;1.00;;;;;;10456450;28;20228;-83
2022/10/17 13:17:19;;;;;;;17.63;6.25;;;22.50;1.00;;;;;;10419393;28;20239;-84
2022/10/17 13:22:43;;;;;;;11.32;5.68;;;22.70;99.90;;;;;;10466980;28;20272;-83
2022/10/17 13:28:11;;;;;;;9.13;6.43;;;22.90;99.90;;;;;;10448142;28;20248;-83
2022/10/17 13:33:41;;;;;;;10.35;5.82;;;23.20;1.00;;;;;;10454924;28;20204;-83
2022/10/17 13:39:08;;;;;;;6.47;5.82;;;22.90;25.90;;;;;;10421753;28;20255;-85
2022/10/17 13:44:34;;;;;;;8.10;6.68;;;22.50;1.00;;;;;;10435374;28;20209;-82
2022/10/17 13:49:57;;;;;;;11.98;7.82;;;21.90;99.90;;;;;;10446589;28;20235;-83
2022/10/17 13:55:19;;;;;;;9.70;7.38;;;21.30;99.90;;;;;;10434598;28;20631;-83
2022/10/17 14:00:40;;;;;;;11.05;8.10;;;21.00;1.00;;;;;;10431651;28;20208;-82
2022/10/17 14:06:15;;;;;;;12.27;8.32;;;20.50;99.90;;;;;;10411831;28;20216;-82
2022/10/17 14:11:39;;;;;;;13.07;8.57;;;20.00;1.00;;;;;;10394105;28;20225;-85
2022/10/17 14:17:00;;;;;;;25.10;14.35;;;20.00;1.00;;;;;;10438828;28;20259;-83
2022/10/17 14:22:21;;;;;;;14.68;10.55;;;19.90;1.00;;;;;;10435364;28;20208;-83
2022/10/17 14:28:06;;;;;;;13.63;9.90;;;19.80;1.00;;;;;;10436162;28;20310;-84
2022/10/17 14:33:30;;;;;;;12.73;9.20;;;19.60;99.90;;;;;;10405726;28;20208;-87
2022/10/17 14:38:52;;;;;;;18.15;8.65;;;19.40;99.90;;;;;;10421307;28;20211;-84
2022/10/17 14:44:24;;;;;;;15.90;10.65;;;19.20;1.00;;;;;;10432278;28;20522;-82
2022/10/17 14:49:49;;;;;;;11.23;8.80;;;19.00;1.00;;;;;;10430859;28;20239;-82
2022/10/17 14:55:25;;;;;;;11.48;8.80;;;18.90;1.00;;;;;;10432556;28;20200;-81
2022/10/17 15:00:46;;;;;;;12.15;9.98;;;18.70;1.00;;;;;;10395530;28;20239;-85
2022/10/17 15:06:27;;;;;;;21.15;14.88;;;18.50;1.00;;;;;;10418365;28;20380;-81
2022/10/17 15:11:49;;;;;;;25.55;20.27;;;18.40;1.10;;;;;;10446675;28;20246;-82
2022/10/17 15:17:24;;;;;;;19.23;16.13;;;18.20;40.60;;;;;;10448899;28;20214;-81
2022/10/17 15:22:46;;;;;;;14.93;12.45;;;18.10;62.30;;;;;;10440084;28;20197;-84
2022/10/17 15:28:09;;;;;;;18.98;14.18;;;;;;;;;;10428134;28;20266;-86
2022/10/17 15:33:31;;;;;;;14.18;11.57;;;17.90;99.90;;;;;;10419608;28;20247;-88
2022/10/17 15:39:00;;;;;;;60.70;46.20;;;17.60;99.90;;;;;;10450195;28;20524;-84
2022/10/17 15:44:21;;;;;;;39.53;30.17;;;17.50;99.90;;;;;;10462175;28;20217;-87
2022/10/17 15:49:43;;;;;;;32.50;21.38;;;17.30;99.90;;;;;;10463042;28;20551;-85
2022/10/17 15:55:04;;;;;;;34.00;22.55;;;17.20;99.90;;;;;;10462649;28;20198;-85
2022/10/17 16:00:26;;;;;;;39.28;26.42;;;17.00;99.90;;;;;;10476693;28;20213;-82
2022/10/17 16:05:47;;;;;;;39.25;27.25;;;16.90;99.90;;;;;;10493087;28;20197;-82
2022/10/17 16:11:24;;;;;;;49.72;35.47;;;16.80;99.90;;;;;;10450712;28;20425;-82
2022/10/17 16:16:46;;;;;;;46.20;32.92;;;16.60;99.90;;;;;;10435425;28;20455;-81
2022/10/17 16:22:21;;;;;;;57.20;36.38;;;16.50;99.90;;;;;;10449087;28;20276;-83
2022/10/17 16:27:43;;;;;;;57.35;36.28;;;16.30;99.90;;;;;;10454518;28;20199;-82
2022/10/17 16:33:04;;;;;;;47.40;31.98;;;16.20;99.90;;;;;;10466270;28;20266;-85
2022/10/17 16:38:25;;;;;;;49.70;31.67;;;16.10;99.90;;;;;;10425201;28;20197;-82
2022/10/17 16:43:48;;;;;;;89.60;45.72;;;16.00;99.90;;;;;;10490805;28;20201;-82
2022/10/17 16:49:11;;;;;;;88.88;43.95;;;15.90;99.90;;;;;;10471851;28;20399;-81
2022/10/17 16:54:33;;;;;;;72.45;38.15;;;15.80;99.90;;;;;;10485940;28;20500;-84
2022/10/17 16:59:54;;;;;;;53.97;33.33;;;15.70;99.90;;;;;;10455155;28;20204;-82
2022/10/17 17:05:16;;;;;;;41.85;26.25;;;15.60;99.90;;;;;;10486064;28;20201;-87
2022/10/17 17:10:42;;;;;;;43.63;27.52;;;15.60;99.90;;;;;;10419154;28;20556;-83
2022/10/17 17:16:08;;;;;;;42.67;31.35;;;15.60;99.90;;;;;;10445675;28;20206;-83
2022/10/17 17:21:30;;;;;;;40.05;29.50;;;15.60;99.90;;;;;;10438873;28;20505;-82
2022/10/17 17:26:53;;;;;;;28.75;23.13;;;15.60;99.90;;;;;;10431670;28;20203;-86
2022/10/17 17:32:14;;;;;;;36.63;26.23;;;15.60;99.90;;;;;;10454092;28;20241;-84
2022/10/17 17:37:36;;;;;;;29.85;22.88;;;15.70;99.90;;;;;;10439516;28;20501;-85
2022/10/17 17:42:57;;;;;;;33.85;24.73;;;15.60;99.90;;;;;;10468563;28;20190;-81
2022/10/17 17:48:19;;;;;;;47.60;31.42;;;15.60;99.90;;;;;;10459716;28;20201;-85
2022/10/17 17:53:40;;;;;;;41.45;29.85;;;15.70;99.90;;;;;;10455429;28;20281;-86
2022/10/17 17:59:03;;;;;;;39.85;25.70;;;15.80;99.90;;;;;;10459521;28;20207;-86
2022/10/17 18:04:24;;;;;;;35.00;26.38;;;15.90;99.90;;;;;;10452718;28;20207;-81
2022/10/17 18:09:46;;;;;;;39.10;26.17;;;16.00;99.90;;;;;;10484025;28;20222;-80
2022/10/17 18:15:08;;;;;;;31.65;22.27;;;16.10;99.90;;;;;;10454594;28;20276;-81
2022/10/17 18:20:29;;;;;;;57.40;36.30;;;16.10;99.90;;;;;;10480026;28;20194;-81
2022/10/17 18:26:02;;;;;;;37.38;25.15;;;16.10;99.90;;;;;;10400397;28;20199;-81
2022/10/17 18:31:27;;;;;;;34.72;23.50;;;16.10;99.90;;;;;;10429111;28;20262;-81
2022/10/17 18:36:48;;;;;;;45.15;28.83;;;16.10;99.90;;;;;;10419418;28;20229;-85
2022/10/17 18:42:10;;;;;;;36.88;23.58;;;16.10;99.90;;;;;;10479575;28;20220;-81
2022/10/17 18:47:32;;;;;;;30.95;22.05;;;16.20;99.90;;;;;;10465581;28;20197;-88
2022/10/17 18:52:53;;;;;;;28.15;22.17;;;16.20;99.90;;;;;;10465773;28;20264;-86
2022/10/17 18:58:18;;;;;;;28.90;23.40;;;16.20;99.90;;;;;;10452301;28;20197;-87
2022/10/17 19:03:39;;;;;;;32.38;23.85;;;16.10;99.90;;;;;;10463975;28;20287;-85
2022/10/17 19:09:05;;;;;;;35.78;23.77;;;16.10;99.90;;;;;;10450265;28;20213;-83
2022/10/17 19:14:27;;;;;;;28.92;20.70;;;16.10;99.90;;;;;;10436414;28;20393;-81
2022/10/17 19:19:50;;;;;;;26.77;20.35;;;16.10;99.90;;;;;;10422346;28;20275;-82
2022/10/17 19:25:11;;;;;;;22.40;17.10;;;16.20;99.90;;;;;;10443570;28;20195;-82
2022/10/17 19:30:33;;;;;;;23.95;17.40;;;16.20;99.90;;;;;;10435584;28;20254;-82
2022/10/17 19:35:59;;;;;;;24.05;17.50;;;16.30;99.90;;;;;;10427043;28;20219;-85
2022/10/17 19:41:21;;;;;;;25.08;16.73;;;16.30;99.90;;;;;;10437883;28;20191;-88
2022/10/17 19:46:47;;;;;;;23.27;16.58;;;16.30;99.90;;;;;;10436875;28;20242;-88
2022/10/17 19:52:09;;;;;;;22.70;17.45;;;16.40;99.90;;;;;;10422675;28;20235;-86
2022/10/17 19:57:30;;;;;;;24.38;15.88;;;16.40;99.90;;;;;;10422290;28;20214;-87
2022/10/17 20:02:51;;;;;;;24.33;17.50;;;16.40;99.90;;;;;;10421924;28;20252;-82
2022/10/17 20:08:14;;;;;;;18.48;15.15;;;16.50;99.90;;;;;;10430599;28;20191;-83
2022/10/17 20:13:36;;;;;;;35.35;21.75;;;16.50;98.20;;;;;;10476543;28;20227;-83
2022/10/17 20:19:09;;;;;;;20.20;16.45;;;16.50;93.70;;;;;;10476628;28;20201;-83
2022/10/17 20:24:30;;;;;;;20.52;16.08;;;16.50;91.60;;;;;;10449010;28;20221;-82
2022/10/17 20:29:51;;;;;;;21.70;15.20;;;16.40;87.00;;;;;;10459771;28;20244;-83
2022/10/17 20:35:13;;;;;;;24.08;15.48;;;16.40;92.10;;;;;;10445353;28;20244;-81
2022/10/17 20:40:34;;;;;;;27.75;15.25;;;16.30;97.90;;;;;;10403250;28;20204;-81
2022/10/17 20:45:56;;;;;;;25.20;15.88;;;16.20;99.90;;;;;;10435550;28;20206;-87
2022/10/17 20:51:23;;;;;;;27.90;16.63;;;16.20;96.30;;;;;;10435788;28;20230;-87
2022/10/17 20:56:44;;;;;;;20.15;14.15;;;16.20;97.70;;;;;;10425533;28;20416;-81
2022/10/17 21:02:06;;;;;;;25.95;15.20;;;16.20;97.60;;;;;;10452667;28;20207;-82
2022/10/17 21:07:27;;;;;;;19.20;14.60;;;16.10;95.10;;;;;;10446167;28;20241;-88
2022/10/17 21:12:49;;;;;;;24.05;13.85;;;16.10;98.00;;;;;;10432399;28;20592;-80
2022/10/17 21:18:15;;;;;;;19.52;14.52;;;16.00;99.90;;;;;;10420629;28;20242;-87
2022/10/17 21:23:37;;;;;;;20.50;14.25;;;16.00;99.90;;;;;;10432949;28;20215;-81
2022/10/17 21:29:04;;;;;;;24.38;16.42;;;15.90;99.90;;;;;;10463197;28;20243;-82
2022/10/17 21:34:27;;;;;;;31.17;16.65;;;16.00;99.90;;;;;;10413770;28;20284;-86
2022/10/17 21:39:48;;;;;;;28.42;16.73;;;15.90;99.90;;;;;;10454492;28;20264;-87
2022/10/17 21:45:10;;;;;;;34.15;20.80;;;15.80;99.90;;;;;;10468391;28;20192;-87
2022/10/17 21:50:35;;;;;;;29.52;17.30;;;15.80;99.90;;;;;;10482359;28;20437;-86
2022/10/17 21:56:04;;;;;;;28.00;16.55;;;15.80;99.90;;;;;;10482981;28;20194;-88
2022/10/17 22:01:27;;;;;;;26.50;15.43;;;15.90;99.90;;;;;;10467548;28;20233;-81
2022/10/17 22:06:52;;;;;;;18.08;13.85;;;15.90;99.90;;;;;;10469808;28;20201;-82
2022/10/17 22:12:13;;;;;;;22.38;14.80;;;16.10;99.90;;;;;;10414908;28;20232;-87
2022/10/17 22:17:34;;;;;;;17.77;13.18;;;16.00;99.90;;;;;;10431204;28;20199;-83
2022/10/17 22:22:56;;;;;;;20.27;14.32;;;15.90;99.90;;;;;;10425908;28;20265;-87
2022/10/17 22:28:17;;;;;;;21.52;13.65;;;15.90;99.90;;;;;;10452575;28;20240;-86
2022/10/17 22:33:39;;;;;;;18.52;13.27;;;15.90;99.90;;;;;;10424410;28;20550;-88
2022/10/17 22:39:00;;;;;;;20.38;13.40;;;15.80;99.90;;;;;;10445435;28;20476;-88
2022/10/17 22:44:21;;;;;;;16.80;11.13;;;15.80;99.90;;;;;;10451154;28;20201;-89
2022/10/17 22:49:42;;;;;;;18.73;12.23;;;15.80;99.90;;;;;;10465190;28;20383;-88
2022/10/17 22:55:07;;;;;;;13.13;11.13;;;15.90;99.90;;;;;;10464538;28;20194;-81
2022/10/17 23:00:30;;;;;;;16.25;11.30;;;15.90;99.90;;;;;;10465191;28;20228;-88
2022/10/17 23:05:51;;;;;;;17.58;11.25;;;15.90;99.90;;;;;;10471176;28;20195;-85
2022/10/17 23:11:13;;;;;;;16.05;11.30;;;15.90;99.90;;;;;;10438114;28;20238;-87
2022/10/17 23:16:34;;;;;;;15.50;11.13;;;15.90;99.90;;;;;;10437004;28;20198;-82
2022/10/17 23:21:55;;;;;;;14.77;10.93;;;16.00;99.90;;;;;;10422417;28;20383;-82
2022/10/17 23:27:16;;;;;;;15.55;11.38;;;16.10;99.90;;;;;;10440922;28;20253;-83
2022/10/17 23:32:38;;;;;;;13.30;10.55;;;16.00;99.90;;;;;;10436220;28;20221;-82
2022/10/17 23:37:59;;;;;;;17.30;10.48;;;15.90;99.90;;;;;;10478170;28;20272;-81
2022/10/17 23:43:21;;;;;;;19.10;11.13;;;15.80;99.90;;;;;;10480226;28;20210;-82
2022/10/17 23:48:42;;;;;;;10.60;9.50;;;15.70;99.90;;;;;;10477278;28;20252;-83
2022/10/17 23:54:03;;;;;;;12.45;10.07;;;15.60;99.90;;;;;;10413469;28;20279;-85
2022/10/17 23:59:24;;;;;;;14.80;8.10;;;15.60;99.90;;;;;;10427683;28;20213;-80
